Terminal Aerodrome Forecast
Issued by NWS Cleveland, OH

Home | Current Version | Previous Version | Text Only | Print | Product List | Glossary Off
Versions: 1 2 3 4 5 6 7 8 9 10 11 12 13 14 15 16 17 18 19 20 21

000
FTUS41 KCLE 191100
TAFYNG
TAF
KYNG 191120Z 1912/2012 32004KT P6SM OVC045
      TEMPO 1912/1914 BKN030 OVC045
     FM191800 30006KT P6SM BKN045
      TEMPO 1918/1920 SCT045
     FM192000 26008KT P6SM BKN250
     FM200200 20005KT P6SM BKN250
     FM200800 18007KT P6SM SCT120 OVC250=

USA.gov is the U.S. government's official web portal to all federal, state and local government web resources and services.